sensor_id;sensor_type;location;lat;lon;timestamp;P1;durP1;ratioP1;P2;durP2;ratioP2
35324;SDS011;35135;47.510;19.036;2022-10-22T00:01:10;4.38;;;3.58;;
35324;SDS011;35135;47.510;19.036;2022-10-22T00:03:36;3.97;;;3.35;;
35324;SDS011;35135;47.510;19.036;2022-10-22T00:06:02;3.90;;;3.38;;
35324;SDS011;35135;47.510;19.036;2022-10-22T00:08:28;4.85;;;3.45;;
35324;SDS011;35135;47.510;19.036;2022-10-22T00:10:53;5.15;;;3.40;;
35324;SDS011;35135;47.510;19.036;2022-10-22T00:13:19;3.95;;;3.42;;
35324;SDS011;35135;47.510;19.036;2022-10-22T00:15:45;5.50;;;3.40;;
35324;SDS011;35135;47.510;19.036;2022-10-22T00:18:10;3.97;;;3.33;;
35324;SDS011;35135;47.510;19.036;2022-10-22T00:20:36;5.78;;;3.70;;
35324;SDS011;35135;47.510;19.036;2022-10-22T00:23:01;3.75;;;3.22;;
35324;SDS011;35135;47.510;19.036;2022-10-22T00:25:27;4.32;;;3.55;;
35324;SDS011;35135;47.510;19.036;2022-10-22T00:27:53;4.20;;;3.75;;
35324;SDS011;35135;47.510;19.036;2022-10-22T00:30:18;4.85;;;3.80;;
35324;SDS011;35135;47.510;19.036;2022-10-22T00:32:44;5.53;;;3.65;;
35324;SDS011;35135;47.510;19.036;2022-10-22T00:35:10;4.07;;;3.55;;
35324;SDS011;35135;47.510;19.036;2022-10-22T00:37:35;3.97;;;3.58;;
35324;SDS011;35135;47.510;19.036;2022-10-22T00:40:01;4.18;;;3.72;;
35324;SDS011;35135;47.510;19.036;2022-10-22T00:42:28;4.43;;;3.30;;
35324;SDS011;35135;47.510;19.036;2022-10-22T00:47:36;5.13;;;3.67;;
35324;SDS011;35135;47.510;19.036;2022-10-22T00:50:08;4.68;;;3.30;;
35324;SDS011;35135;47.510;19.036;2022-10-22T00:52:40;4.55;;;3.65;;
35324;SDS011;35135;47.510;19.036;2022-10-22T00:55:06;4.47;;;3.83;;
35324;SDS011;35135;47.510;19.036;2022-10-22T00:57:32;4.95;;;3.80;;
35324;SDS011;35135;47.510;19.036;2022-10-22T00:59:58;4.28;;;3.60;;
35324;SDS011;35135;47.510;19.036;2022-10-22T01:02:24;4.95;;;3.33;;
35324;SDS011;35135;47.510;19.036;2022-10-22T01:04:50;5.20;;;3.50;;
35324;SDS011;35135;47.510;19.036;2022-10-22T01:07:17;3.95;;;3.33;;
35324;SDS011;35135;47.510;19.036;2022-10-22T01:09:59;3.60;;;3.28;;
35324;SDS011;35135;47.510;19.036;2022-10-22T01:13:01;4.05;;;3.30;;
35324;SDS011;35135;47.510;19.036;2022-10-22T01:15:51;4.43;;;3.20;;
35324;SDS011;35135;47.510;19.036;2022-10-22T01:21:18;4.22;;;3.40;;
35324;SDS011;35135;47.510;19.036;2022-10-22T01:32:10;4.55;;;3.33;;
35324;SDS011;35135;47.510;19.036;2022-10-22T01:34:40;5.22;;;3.45;;
35324;SDS011;35135;47.510;19.036;2022-10-22T01:37:08;4.07;;;3.00;;
35324;SDS011;35135;47.510;19.036;2022-10-22T01:39:36;3.95;;;3.28;;
35324;SDS011;35135;47.510;19.036;2022-10-22T01:42:04;3.72;;;3.30;;
35324;SDS011;35135;47.510;19.036;2022-10-22T01:44:33;4.20;;;3.25;;
35324;SDS011;35135;47.510;19.036;2022-10-22T01:49:33;3.17;;;2.88;;
35324;SDS011;35135;47.510;19.036;2022-10-22T01:55:10;3.25;;;2.95;;
35324;SDS011;35135;47.510;19.036;2022-10-22T01:57:43;3.95;;;3.03;;
35324;SDS011;35135;47.510;19.036;2022-10-22T02:00:17;3.90;;;3.38;;
35324;SDS011;35135;47.510;19.036;2022-10-22T02:05:43;4.03;;;3.42;;
35324;SDS011;35135;47.510;19.036;2022-10-22T02:08:33;3.42;;;3.13;;
35324;SDS011;35135;47.510;19.036;2022-10-22T02:10:59;3.50;;;3.20;;
35324;SDS011;35135;47.510;19.036;2022-10-22T02:13:27;3.85;;;3.42;;
35324;SDS011;35135;47.510;19.036;2022-10-22T02:15:54;3.50;;;3.20;;
35324;SDS011;35135;47.510;19.036;2022-10-22T02:18:22;3.85;;;3.30;;
35324;SDS011;35135;47.510;19.036;2022-10-22T02:20:51;4.22;;;3.53;;
35324;SDS011;35135;47.510;19.036;2022-10-22T02:23:19;3.65;;;2.95;;
35324;SDS011;35135;47.510;19.036;2022-10-22T02:25:46;4.75;;;3.63;;
35324;SDS011;35135;47.510;19.036;2022-10-22T02:31:14;4.20;;;3.40;;
35324;SDS011;35135;47.510;19.036;2022-10-22T02:33:46;3.80;;;3.35;;
35324;SDS011;35135;47.510;19.036;2022-10-22T02:36:15;4.65;;;3.95;;
35324;SDS011;35135;47.510;19.036;2022-10-22T02:38:42;4.38;;;3.53;;
35324;SDS011;35135;47.510;19.036;2022-10-22T02:41:08;3.72;;;3.38;;
35324;SDS011;35135;47.510;19.036;2022-10-22T02:43:38;4.63;;;3.25;;
35324;SDS011;35135;47.510;19.036;2022-10-22T02:46:06;4.38;;;3.38;;
35324;SDS011;35135;47.510;19.036;2022-10-22T02:48:32;4.60;;;3.70;;
35324;SDS011;35135;47.510;19.036;2022-10-22T02:50:58;4.07;;;3.47;;
35324;SDS011;35135;47.510;19.036;2022-10-22T02:53:24;3.40;;;3.10;;
35324;SDS011;35135;47.510;19.036;2022-10-22T02:55:49;3.80;;;3.05;;
35324;SDS011;35135;47.510;19.036;2022-10-22T02:58:15;3.97;;;3.28;;
35324;SDS011;35135;47.510;19.036;2022-10-22T03:00:41;3.45;;;3.13;;
35324;SDS011;35135;47.510;19.036;2022-10-22T03:03:06;4.07;;;3.20;;
35324;SDS011;35135;47.510;19.036;2022-10-22T03:05:32;4.43;;;3.17;;
35324;SDS011;35135;47.510;19.036;2022-10-22T03:07:58;4.18;;;3.72;;
35324;SDS011;35135;47.510;19.036;2022-10-22T03:10:23;4.63;;;3.50;;
35324;SDS011;35135;47.510;19.036;2022-10-22T03:12:49;4.10;;;3.58;;
35324;SDS011;35135;47.510;19.036;2022-10-22T03:15:14;3.95;;;3.55;;
35324;SDS011;35135;47.510;19.036;2022-10-22T03:17:40;5.20;;;3.35;;
35324;SDS011;35135;47.510;19.036;2022-10-22T03:20:06;3.58;;;3.28;;
35324;SDS011;35135;47.510;19.036;2022-10-22T03:22:32;4.00;;;3.25;;
35324;SDS011;35135;47.510;19.036;2022-10-22T03:24:59;4.32;;;3.33;;
35324;SDS011;35135;47.510;19.036;2022-10-22T03:29:57;4.18;;;3.53;;
35324;SDS011;35135;47.510;19.036;2022-10-22T03:32:23;3.97;;;3.00;;
35324;SDS011;35135;47.510;19.036;2022-10-22T03:34:49;4.47;;;3.58;;
35324;SDS011;35135;47.510;19.036;2022-10-22T03:37:15;5.43;;;3.70;;
35324;SDS011;35135;47.510;19.036;2022-10-22T03:39:41;3.85;;;3.45;;
35324;SDS011;35135;47.510;19.036;2022-10-22T03:42:07;4.03;;;3.58;;
35324;SDS011;35135;47.510;19.036;2022-10-22T03:44:34;4.93;;;3.47;;
35324;SDS011;35135;47.510;19.036;2022-10-22T03:47:02;3.83;;;3.40;;
35324;SDS011;35135;47.510;19.036;2022-10-22T03:49:27;3.85;;;3.45;;
35324;SDS011;35135;47.510;19.036;2022-10-22T03:51:53;3.80;;;3.33;;
35324;SDS011;35135;47.510;19.036;2022-10-22T03:54:19;3.78;;;3.40;;
35324;SDS011;35135;47.510;19.036;2022-10-22T03:56:44;3.70;;;3.30;;
35324;SDS011;35135;47.510;19.036;2022-10-22T03:59:10;3.78;;;3.40;;
35324;SDS011;35135;47.510;19.036;2022-10-22T04:01:37;3.60;;;3.15;;
35324;SDS011;35135;47.510;19.036;2022-10-22T04:04:03;3.85;;;3.45;;
35324;SDS011;35135;47.510;19.036;2022-10-22T04:06:29;4.00;;;3.60;;
35324;SDS011;35135;47.510;19.036;2022-10-22T04:08:54;4.07;;;3.35;;
35324;SDS011;35135;47.510;19.036;2022-10-22T04:11:20;4.00;;;3.60;;
35324;SDS011;35135;47.510;19.036;2022-10-22T04:13:46;4.15;;;3.65;;
35324;SDS011;35135;47.510;19.036;2022-10-22T04:16:15;4.93;;;3.85;;
35324;SDS011;35135;47.510;19.036;2022-10-22T04:18:43;3.67;;;3.25;;
35324;SDS011;35135;47.510;19.036;2022-10-22T04:21:11;4.43;;;3.60;;
35324;SDS011;35135;47.510;19.036;2022-10-22T04:23:38;4.75;;;3.70;;
35324;SDS011;35135;47.510;19.036;2022-10-22T04:26:08;3.75;;;3.35;;
35324;SDS011;35135;47.510;19.036;2022-10-22T04:28:33;3.90;;;3.50;;
35324;SDS011;35135;47.510;19.036;2022-10-22T04:30:59;3.75;;;3.45;;
35324;SDS011;35135;47.510;19.036;2022-10-22T04:33:30;3.63;;;3.28;;
35324;SDS011;35135;47.510;19.036;2022-10-22T04:35:56;4.97;;;3.67;;
35324;SDS011;35135;47.510;19.036;2022-10-22T04:38:22;4.88;;;3.80;;
35324;SDS011;35135;47.510;19.036;2022-10-22T04:40:47;4.88;;;3.97;;
35324;SDS011;35135;47.510;19.036;2022-10-22T04:43:13;4.05;;;3.38;;
35324;SDS011;35135;47.510;19.036;2022-10-22T04:45:38;5.28;;;3.75;;
35324;SDS011;35135;47.510;19.036;2022-10-22T04:48:04;3.35;;;3.05;;
35324;SDS011;35135;47.510;19.036;2022-10-22T04:50:30;4.30;;;3.88;;
35324;SDS011;35135;47.510;19.036;2022-10-22T04:52:56;3.75;;;3.35;;
35324;SDS011;35135;47.510;19.036;2022-10-22T04:55:21;3.67;;;3.22;;
35324;SDS011;35135;47.510;19.036;2022-10-22T04:57:47;3.78;;;3.40;;
35324;SDS011;35135;47.510;19.036;2022-10-22T05:00:13;4.15;;;3.40;;
35324;SDS011;35135;47.510;19.036;2022-10-22T05:02:40;4.63;;;3.53;;
35324;SDS011;35135;47.510;19.036;2022-10-22T05:05:08;3.63;;;3.17;;
35324;SDS011;35135;47.510;19.036;2022-10-22T05:07:35;3.80;;;3.30;;
35324;SDS011;35135;47.510;19.036;2022-10-22T05:10:01;4.53;;;3.33;;
35324;SDS011;35135;47.510;19.036;2022-10-22T05:12:27;4.25;;;3.85;;
35324;SDS011;35135;47.510;19.036;2022-10-22T05:14:53;4.10;;;3.30;;
35324;SDS011;35135;47.510;19.036;2022-10-22T05:17:19;4.75;;;3.15;;
35324;SDS011;35135;47.510;19.036;2022-10-22T05:19:45;5.07;;;3.60;;
35324;SDS011;35135;47.510;19.036;2022-10-22T05:22:11;4.45;;;3.60;;
35324;SDS011;35135;47.510;19.036;2022-10-22T05:24:36;3.58;;;3.22;;
35324;SDS011;35135;47.510;19.036;2022-10-22T05:27:02;3.63;;;3.28;;
35324;SDS011;35135;47.510;19.036;2022-10-22T05:29:28;4.30;;;3.40;;
35324;SDS011;35135;47.510;19.036;2022-10-22T05:31:53;4.53;;;3.55;;
35324;SDS011;35135;47.510;19.036;2022-10-22T05:34:19;4.57;;;3.55;;
35324;SDS011;35135;47.510;19.036;2022-10-22T05:36:45;5.68;;;3.83;;
35324;SDS011;35135;47.510;19.036;2022-10-22T05:39:11;4.72;;;3.63;;
35324;SDS011;35135;47.510;19.036;2022-10-22T05:41:37;4.90;;;3.60;;
35324;SDS011;35135;47.510;19.036;2022-10-22T05:44:03;3.78;;;3.35;;
35324;SDS011;35135;47.510;19.036;2022-10-22T05:46:31;5.43;;;3.38;;
35324;SDS011;35135;47.510;19.036;2022-10-22T05:48:59;5.25;;;3.50;;
35324;SDS011;35135;47.510;19.036;2022-10-22T05:51:27;5.95;;;3.60;;
35324;SDS011;35135;47.510;19.036;2022-10-22T05:53:55;6.13;;;3.60;;
35324;SDS011;35135;47.510;19.036;2022-10-22T05:56:23;5.25;;;3.38;;
35324;SDS011;35135;47.510;19.036;2022-10-22T05:58:49;6.13;;;3.80;;
35324;SDS011;35135;47.510;19.036;2022-10-22T06:01:19;8.45;;;3.47;;
35324;SDS011;35135;47.510;19.036;2022-10-22T06:03:52;5.80;;;3.83;;
35324;SDS011;35135;47.510;19.036;2022-10-22T06:08:55;9.27;;;3.90;;
35324;SDS011;35135;47.510;19.036;2022-10-22T06:11:26;6.82;;;4.10;;
35324;SDS011;35135;47.510;19.036;2022-10-22T06:13:51;8.27;;;4.00;;
35324;SDS011;35135;47.510;19.036;2022-10-22T06:16:17;7.20;;;3.70;;
35324;SDS011;35135;47.510;19.036;2022-10-22T06:18:43;5.03;;;3.35;;
35324;SDS011;35135;47.510;19.036;2022-10-22T06:21:10;6.93;;;4.38;;
35324;SDS011;35135;47.510;19.036;2022-10-22T06:23:38;7.70;;;3.80;;
35324;SDS011;35135;47.510;19.036;2022-10-22T06:26:04;7.45;;;3.80;;
35324;SDS011;35135;47.510;19.036;2022-10-22T06:28:31;6.35;;;3.67;;
35324;SDS011;35135;47.510;19.036;2022-10-22T06:30:58;9.60;;;3.58;;
35324;SDS011;35135;47.510;19.036;2022-10-22T06:33:25;8.73;;;4.13;;
35324;SDS011;35135;47.510;19.036;2022-10-22T06:35:51;8.13;;;3.60;;
35324;SDS011;35135;47.510;19.036;2022-10-22T06:38:17;5.88;;;3.70;;
35324;SDS011;35135;47.510;19.036;2022-10-22T06:40:42;10.20;;;4.63;;
35324;SDS011;35135;47.510;19.036;2022-10-22T06:43:12;5.00;;;3.80;;
35324;SDS011;35135;47.510;19.036;2022-10-22T06:45:39;5.93;;;3.92;;
35324;SDS011;35135;47.510;19.036;2022-10-22T06:48:04;7.22;;;4.00;;
35324;SDS011;35135;47.510;19.036;2022-10-22T06:50:32;8.75;;;3.85;;
35324;SDS011;35135;47.510;19.036;2022-10-22T06:52:58;7.20;;;3.75;;
35324;SDS011;35135;47.510;19.036;2022-10-22T06:55:24;5.85;;;3.42;;
35324;SDS011;35135;47.510;19.036;2022-10-22T06:57:50;5.30;;;3.67;;
35324;SDS011;35135;47.510;19.036;2022-10-22T07:00:15;5.25;;;4.13;;
35324;SDS011;35135;47.510;19.036;2022-10-22T07:02:41;4.65;;;3.88;;
35324;SDS011;35135;47.510;19.036;2022-10-22T07:05:07;5.63;;;3.97;;
35324;SDS011;35135;47.510;19.036;2022-10-22T07:07:33;8.05;;;4.00;;
35324;SDS011;35135;47.510;19.036;2022-10-22T07:09:58;4.65;;;3.78;;
35324;SDS011;35135;47.510;19.036;2022-10-22T07:12:24;4.60;;;3.95;;
35324;SDS011;35135;47.510;19.036;2022-10-22T07:14:49;4.97;;;3.53;;
35324;SDS011;35135;47.510;19.036;2022-10-22T07:17:15;5.80;;;3.65;;
35324;SDS011;35135;47.510;19.036;2022-10-22T07:19:41;4.60;;;3.47;;
35324;SDS011;35135;47.510;19.036;2022-10-22T07:22:06;4.55;;;3.63;;
35324;SDS011;35135;47.510;19.036;2022-10-22T07:24:32;4.28;;;3.70;;
35324;SDS011;35135;47.510;19.036;2022-10-22T07:26:58;4.95;;;3.90;;
35324;SDS011;35135;47.510;19.036;2022-10-22T07:29:23;5.75;;;3.95;;
35324;SDS011;35135;47.510;19.036;2022-10-22T07:31:49;4.20;;;3.78;;
35324;SDS011;35135;47.510;19.036;2022-10-22T07:34:15;6.38;;;3.90;;
35324;SDS011;35135;47.510;19.036;2022-10-22T07:36:40;4.60;;;3.65;;
35324;SDS011;35135;47.510;19.036;2022-10-22T07:39:06;4.75;;;3.67;;
35324;SDS011;35135;47.510;19.036;2022-10-22T07:41:32;4.05;;;3.65;;
35324;SDS011;35135;47.510;19.036;2022-10-22T07:43:57;6.18;;;4.05;;
35324;SDS011;35135;47.510;19.036;2022-10-22T07:46:24;7.40;;;3.95;;
35324;SDS011;35135;47.510;19.036;2022-10-22T07:48:50;6.10;;;4.13;;
35324;SDS011;35135;47.510;19.036;2022-10-22T07:51:16;5.25;;;4.05;;
35324;SDS011;35135;47.510;19.036;2022-10-22T07:53:42;5.72;;;4.00;;
35324;SDS011;35135;47.510;19.036;2022-10-22T07:56:07;5.15;;;4.07;;
35324;SDS011;35135;47.510;19.036;2022-10-22T07:58:34;5.85;;;3.63;;
35324;SDS011;35135;47.510;19.036;2022-10-22T08:01:00;5.40;;;3.72;;
35324;SDS011;35135;47.510;19.036;2022-10-22T08:03:27;5.25;;;3.50;;
35324;SDS011;35135;47.510;19.036;2022-10-22T08:05:53;5.65;;;3.88;;
35324;SDS011;35135;47.510;19.036;2022-10-22T08:08:19;5.78;;;3.90;;
35324;SDS011;35135;47.510;19.036;2022-10-22T08:10:46;4.80;;;4.03;;
35324;SDS011;35135;47.510;19.036;2022-10-22T08:13:12;5.70;;;4.05;;
35324;SDS011;35135;47.510;19.036;2022-10-22T08:15:39;5.43;;;3.67;;
35324;SDS011;35135;47.510;19.036;2022-10-22T08:18:06;5.10;;;3.60;;
35324;SDS011;35135;47.510;19.036;2022-10-22T08:20:31;5.45;;;4.18;;
35324;SDS011;35135;47.510;19.036;2022-10-22T08:22:57;4.45;;;3.80;;
35324;SDS011;35135;47.510;19.036;2022-10-22T08:25:23;4.75;;;3.35;;
35324;SDS011;35135;47.510;19.036;2022-10-22T08:27:49;5.28;;;3.83;;
35324;SDS011;35135;47.510;19.036;2022-10-22T08:30:15;5.82;;;4.00;;
35324;SDS011;35135;47.510;19.036;2022-10-22T08:32:41;5.38;;;3.47;;
35324;SDS011;35135;47.510;19.036;2022-10-22T08:35:07;4.65;;;3.90;;
35324;SDS011;35135;47.510;19.036;2022-10-22T08:37:32;4.47;;;3.63;;
35324;SDS011;35135;47.510;19.036;2022-10-22T08:39:58;5.05;;;4.03;;
35324;SDS011;35135;47.510;19.036;2022-10-22T08:42:44;5.57;;;4.05;;
35324;SDS011;35135;47.510;19.036;2022-10-22T08:45:39;4.93;;;3.95;;
35324;SDS011;35135;47.510;19.036;2022-10-22T08:51:16;4.38;;;3.78;;
35324;SDS011;35135;47.510;19.036;2022-10-22T08:53:52;4.47;;;3.85;;
35324;SDS011;35135;47.510;19.036;2022-10-22T08:56:43;4.60;;;4.15;;
35324;SDS011;35135;47.510;19.036;2022-10-22T09:01:52;5.22;;;3.78;;
35324;SDS011;35135;47.510;19.036;2022-10-22T09:07:09;3.92;;;3.30;;
35324;SDS011;35135;47.510;19.036;2022-10-22T09:09:37;4.25;;;3.60;;
35324;SDS011;35135;47.510;19.036;2022-10-22T09:12:12;4.03;;;3.63;;
35324;SDS011;35135;47.510;19.036;2022-10-22T09:14:40;4.53;;;3.33;;
35324;SDS011;35135;47.510;19.036;2022-10-22T09:25:13;3.85;;;3.45;;
35324;SDS011;35135;47.510;19.036;2022-10-22T09:27:49;4.20;;;3.80;;
35324;SDS011;35135;47.510;19.036;2022-10-22T09:30:17;4.15;;;3.67;;
35324;SDS011;35135;47.510;19.036;2022-10-22T09:32:45;4.10;;;3.70;;
35324;SDS011;35135;47.510;19.036;2022-10-22T09:38:13;5.60;;;4.20;;
35324;SDS011;35135;47.510;19.036;2022-10-22T09:40:41;4.60;;;3.55;;
35324;SDS011;35135;47.510;19.036;2022-10-22T09:43:18;4.85;;;3.58;;
35324;SDS011;35135;47.510;19.036;2022-10-22T09:45:44;4.35;;;3.65;;
35324;SDS011;35135;47.510;19.036;2022-10-22T09:50:44;4.10;;;3.70;;
35324;SDS011;35135;47.510;19.036;2022-10-22T09:53:16;4.60;;;3.72;;
35324;SDS011;35135;47.510;19.036;2022-10-22T09:58:22;4.15;;;3.67;;
35324;SDS011;35135;47.510;19.036;2022-10-22T10:00:55;3.47;;;3.13;;
35324;SDS011;35135;47.510;19.036;2022-10-22T10:03:25;3.65;;;3.30;;
35324;SDS011;35135;47.510;19.036;2022-10-22T10:05:56;4.43;;;3.28;;
35324;SDS011;35135;47.510;19.036;2022-10-22T10:08:24;4.03;;;3.60;;
35324;SDS011;35135;47.510;19.036;2022-10-22T10:11:05;5.20;;;3.78;;
35324;SDS011;35135;47.510;19.036;2022-10-22T10:16:25;6.00;;;3.72;;
35324;SDS011;35135;47.510;19.036;2022-10-22T10:21:35;4.57;;;3.67;;
35324;SDS011;35135;47.510;19.036;2022-10-22T10:24:27;4.18;;;3.78;;
35324;SDS011;35135;47.510;19.036;2022-10-22T10:35:24;3.97;;;3.47;;
35324;SDS011;35135;47.510;19.036;2022-10-22T10:40:58;5.57;;;3.75;;
35324;SDS011;35135;47.510;19.036;2022-10-22T10:49:16;4.55;;;3.85;;
35324;SDS011;35135;47.510;19.036;2022-10-22T10:54:34;4.18;;;3.78;;
35324;SDS011;35135;47.510;19.036;2022-10-22T11:07:53;4.72;;;4.00;;
35324;SDS011;35135;47.510;19.036;2022-10-22T11:15:44;4.65;;;4.00;;
35324;SDS011;35135;47.510;19.036;2022-10-22T11:18:17;3.95;;;3.55;;
35324;SDS011;35135;47.510;19.036;2022-10-22T11:23:31;5.05;;;4.20;;
35324;SDS011;35135;47.510;19.036;2022-10-22T11:26:03;4.13;;;3.72;;
35324;SDS011;35135;47.510;19.036;2022-10-22T11:28:43;5.28;;;4.03;;
35324;SDS011;35135;47.510;19.036;2022-10-22T11:31:14;4.40;;;3.80;;
35324;SDS011;35135;47.510;19.036;2022-10-22T11:33:44;4.20;;;3.67;;
35324;SDS011;35135;47.510;19.036;2022-10-22T11:36:12;4.15;;;3.75;;
35324;SDS011;35135;47.510;19.036;2022-10-22T11:38:39;4.05;;;3.65;;
35324;SDS011;35135;47.510;19.036;2022-10-22T11:41:12;5.00;;;4.32;;
35324;SDS011;35135;47.510;19.036;2022-10-22T11:46:53;5.15;;;3.90;;
35324;SDS011;35135;47.510;19.036;2022-10-22T11:49:41;4.55;;;4.03;;
35324;SDS011;35135;47.510;19.036;2022-10-22T11:52:22;4.05;;;3.60;;
35324;SDS011;35135;47.510;19.036;2022-10-22T11:55:26;4.80;;;4.30;;
35324;SDS011;35135;47.510;19.036;2022-10-22T12:03:41;5.25;;;4.25;;
35324;SDS011;35135;47.510;19.036;2022-10-22T12:08:45;4.72;;;4.30;;
35324;SDS011;35135;47.510;19.036;2022-10-22T12:16:38;4.27;;;3.87;;
35324;SDS011;35135;47.510;19.036;2022-10-22T12:19:17;5.43;;;4.32;;
35324;SDS011;35135;47.510;19.036;2022-10-22T12:21:52;4.93;;;4.00;;
35324;SDS011;35135;47.510;19.036;2022-10-22T12:24:20;4.47;;;3.92;;
35324;SDS011;35135;47.510;19.036;2022-10-22T12:26:47;4.72;;;3.92;;
35324;SDS011;35135;47.510;19.036;2022-10-22T12:29:17;5.18;;;4.40;;
35324;SDS011;35135;47.510;19.036;2022-10-22T12:31:44;4.78;;;4.00;;
35324;SDS011;35135;47.510;19.036;2022-10-22T12:34:14;4.53;;;3.78;;
35324;SDS011;35135;47.510;19.036;2022-10-22T12:36:42;4.20;;;3.80;;
35324;SDS011;35135;47.510;19.036;2022-10-22T12:39:12;4.60;;;3.72;;
35324;SDS011;35135;47.510;19.036;2022-10-22T12:41:41;4.35;;;3.95;;
35324;SDS011;35135;47.510;19.036;2022-10-22T12:44:09;4.38;;;3.97;;
35324;SDS011;35135;47.510;19.036;2022-10-22T12:46:37;5.28;;;4.43;;
35324;SDS011;35135;47.510;19.036;2022-10-22T12:49:04;4.80;;;4.10;;
35324;SDS011;35135;47.510;19.036;2022-10-22T12:51:37;4.70;;;4.15;;
35324;SDS011;35135;47.510;19.036;2022-10-22T12:54:07;4.93;;;4.30;;
35324;SDS011;35135;47.510;19.036;2022-10-22T12:56:37;5.20;;;4.30;;
35324;SDS011;35135;47.510;19.036;2022-10-22T12:59:06;5.65;;;4.35;;
35324;SDS011;35135;47.510;19.036;2022-10-22T13:01:41;7.38;;;4.75;;
35324;SDS011;35135;47.510;19.036;2022-10-22T13:06:46;4.93;;;4.25;;
35324;SDS011;35135;47.510;19.036;2022-10-22T13:09:39;4.35;;;3.92;;
35324;SDS011;35135;47.510;19.036;2022-10-22T13:12:07;5.47;;;4.47;;
35324;SDS011;35135;47.510;19.036;2022-10-22T13:14:40;4.47;;;4.07;;
35324;SDS011;35135;47.510;19.036;2022-10-22T13:17:17;4.57;;;4.18;;
35324;SDS011;35135;47.510;19.036;2022-10-22T13:19:47;4.63;;;4.15;;
35324;SDS011;35135;47.510;19.036;2022-10-22T13:22:29;4.45;;;3.90;;
35324;SDS011;35135;47.510;19.036;2022-10-22T13:27:43;4.63;;;4.22;;
35324;SDS011;35135;47.510;19.036;2022-10-22T13:30:21;5.03;;;4.53;;
35324;SDS011;35135;47.510;19.036;2022-10-22T13:32:53;4.63;;;4.10;;
35324;SDS011;35135;47.510;19.036;2022-10-22T13:35:23;5.32;;;4.20;;
35324;SDS011;35135;47.510;19.036;2022-10-22T13:37:51;4.82;;;4.25;;
35324;SDS011;35135;47.510;19.036;2022-10-22T13:40:17;4.70;;;4.20;;
35324;SDS011;35135;47.510;19.036;2022-10-22T13:42:43;4.95;;;4.15;;
35324;SDS011;35135;47.510;19.036;2022-10-22T13:45:09;5.15;;;4.28;;
35324;SDS011;35135;47.510;19.036;2022-10-22T13:47:34;6.45;;;4.72;;
35324;SDS011;35135;47.510;19.036;2022-10-22T13:50:01;5.07;;;4.43;;
35324;SDS011;35135;47.510;19.036;2022-10-22T13:52:36;5.07;;;4.57;;
35324;SDS011;35135;47.510;19.036;2022-10-22T13:55:15;5.60;;;4.78;;
35324;SDS011;35135;47.510;19.036;2022-10-22T13:57:46;4.38;;;3.97;;
35324;SDS011;35135;47.510;19.036;2022-10-22T14:00:14;4.72;;;4.22;;
35324;SDS011;35135;47.510;19.036;2022-10-22T14:02:42;5.10;;;4.47;;
35324;SDS011;35135;47.510;19.036;2022-10-22T14:05:10;4.38;;;3.97;;
35324;SDS011;35135;47.510;19.036;2022-10-22T14:07:36;5.10;;;4.60;;
35324;SDS011;35135;47.510;19.036;2022-10-22T14:10:36;5.18;;;4.22;;
35324;SDS011;35135;47.510;19.036;2022-10-22T14:12:55;4.82;;;3.97;;
35324;SDS011;35135;47.510;19.036;2022-10-22T14:15:22;4.82;;;4.30;;
35324;SDS011;35135;47.510;19.036;2022-10-22T14:17:52;4.70;;;4.22;;
35324;SDS011;35135;47.510;19.036;2022-10-22T14:20:21;4.90;;;4.40;;
35324;SDS011;35135;47.510;19.036;2022-10-22T14:22:53;4.75;;;4.25;;
35324;SDS011;35135;47.510;19.036;2022-10-22T14:25:20;4.57;;;4.05;;
35324;SDS011;35135;47.510;19.036;2022-10-22T14:27:47;4.30;;;3.63;;
35324;SDS011;35135;47.510;19.036;2022-10-22T14:30:13;4.43;;;4.03;;
35324;SDS011;35135;47.510;19.036;2022-10-22T14:32:40;5.47;;;4.63;;
35324;SDS011;35135;47.510;19.036;2022-10-22T14:35:08;4.90;;;4.40;;
35324;SDS011;35135;47.510;19.036;2022-10-22T14:37:38;4.47;;;4.07;;
35324;SDS011;35135;47.510;19.036;2022-10-22T14:40:04;4.40;;;4.00;;
35324;SDS011;35135;47.510;19.036;2022-10-22T14:42:31;4.45;;;4.03;;
35324;SDS011;35135;47.510;19.036;2022-10-22T14:45:02;4.77;;;4.10;;
35324;SDS011;35135;47.510;19.036;2022-10-22T14:47:28;5.13;;;4.63;;
35324;SDS011;35135;47.510;19.036;2022-10-22T14:49:54;6.68;;;4.68;;
35324;SDS011;35135;47.510;19.036;2022-10-22T14:52:20;5.22;;;4.50;;
35324;SDS011;35135;47.510;19.036;2022-10-22T14:54:45;5.25;;;4.50;;
35324;SDS011;35135;47.510;19.036;2022-10-22T14:57:12;5.35;;;4.32;;
35324;SDS011;35135;47.510;19.036;2022-10-22T14:59:39;4.95;;;4.43;;
35324;SDS011;35135;47.510;19.036;2022-10-22T15:02:05;4.88;;;4.38;;
35324;SDS011;35135;47.510;19.036;2022-10-22T15:04:32;5.15;;;4.30;;
35324;SDS011;35135;47.510;19.036;2022-10-22T15:06:58;4.63;;;4.13;;
35324;SDS011;35135;47.510;19.036;2022-10-22T15:09:23;5.43;;;4.47;;
35324;SDS011;35135;47.510;19.036;2022-10-22T15:11:49;5.28;;;4.38;;
35324;SDS011;35135;47.510;19.036;2022-10-22T15:14:15;6.05;;;4.65;;
35324;SDS011;35135;47.510;19.036;2022-10-22T15:16:41;4.80;;;4.30;;
35324;SDS011;35135;47.510;19.036;2022-10-22T15:19:06;4.50;;;4.10;;
35324;SDS011;35135;47.510;19.036;2022-10-22T15:21:32;5.97;;;4.88;;
35324;SDS011;35135;47.510;19.036;2022-10-22T15:23:57;4.90;;;4.40;;
35324;SDS011;35135;47.510;19.036;2022-10-22T15:26:24;4.57;;;4.05;;
35324;SDS011;35135;47.510;19.036;2022-10-22T15:28:50;4.53;;;3.92;;
35324;SDS011;35135;47.510;19.036;2022-10-22T15:31:16;5.78;;;5.03;;
35324;SDS011;35135;47.510;19.036;2022-10-22T15:34:12;4.72;;;3.95;;
35324;SDS011;35135;47.510;19.036;2022-10-22T15:36:42;4.95;;;4.40;;
35324;SDS011;35135;47.510;19.036;2022-10-22T15:39:08;5.47;;;4.93;;
35324;SDS011;35135;47.510;19.036;2022-10-22T15:41:34;4.55;;;4.10;;
35324;SDS011;35135;47.510;19.036;2022-10-22T15:44:00;5.30;;;4.65;;
35324;SDS011;35135;47.510;19.036;2022-10-22T15:46:26;5.90;;;4.45;;
35324;SDS011;35135;47.510;19.036;2022-10-22T15:48:53;4.97;;;4.47;;
35324;SDS011;35135;47.510;19.036;2022-10-22T15:51:19;4.68;;;4.20;;
35324;SDS011;35135;47.510;19.036;2022-10-22T15:53:52;4.93;;;4.45;;
35324;SDS011;35135;47.510;19.036;2022-10-22T15:56:19;4.55;;;4.10;;
35324;SDS011;35135;47.510;19.036;2022-10-22T15:58:45;5.10;;;4.60;;
35324;SDS011;35135;47.510;19.036;2022-10-22T16:01:12;6.10;;;4.50;;
35324;SDS011;35135;47.510;19.036;2022-10-22T16:03:39;4.45;;;4.05;;
35324;SDS011;35135;47.510;19.036;2022-10-22T16:06:05;5.20;;;4.68;;
35324;SDS011;35135;47.510;19.036;2022-10-22T16:08:32;5.28;;;4.60;;
35324;SDS011;35135;47.510;19.036;2022-10-22T16:10:58;6.80;;;5.00;;
35324;SDS011;35135;47.510;19.036;2022-10-22T16:13:23;5.03;;;4.50;;
35324;SDS011;35135;47.510;19.036;2022-10-22T16:15:50;4.88;;;4.38;;
35324;SDS011;35135;47.510;19.036;2022-10-22T16:18:17;5.93;;;4.70;;
35324;SDS011;35135;47.510;19.036;2022-10-22T16:20:43;5.25;;;4.68;;
35324;SDS011;35135;47.510;19.036;2022-10-22T16:23:09;5.32;;;4.82;;
35324;SDS011;35135;47.510;19.036;2022-10-22T16:25:38;5.05;;;4.55;;
35324;SDS011;35135;47.510;19.036;2022-10-22T16:28:05;6.10;;;4.95;;
35324;SDS011;35135;47.510;19.036;2022-10-22T16:30:32;5.43;;;4.93;;
35324;SDS011;35135;47.510;19.036;2022-10-22T16:32:59;4.93;;;4.43;;
35324;SDS011;35135;47.510;19.036;2022-10-22T16:35:25;5.30;;;4.80;;
35324;SDS011;35135;47.510;19.036;2022-10-22T16:37:50;4.68;;;4.00;;
35324;SDS011;35135;47.510;19.036;2022-10-22T16:40:16;5.28;;;4.78;;
35324;SDS011;35135;47.510;19.036;2022-10-22T16:42:42;5.75;;;4.78;;